Time;durP1;ratioP1;P1;durP2;ratioP2;P2;SDS_P1;SDS_P2;PMS_P1;PMS_P2;Temp;Humidity;BMP_temperature;BMP_pressure;BME280_temperature;BME280_humidity;BME280_pressure;Samples;Min_cycle;Max_cycle;Signal;HPM_P1;HPM_P2
2021/01/09 00:02:07;;;;;;;14.37;10.80;;;;;;;3.29;80.85;96439.31;5090103;28;20175;-56
2021/01/09 00:04:32;;;;;;;12.83;9.63;;;;;;;3.41;80.15;96442.25;5108006;28;20411;-56
2021/01/09 00:06:58;;;;;;;12.97;10.23;;;;;;;3.48;80.21;96446.56;5110388;28;20637;-56
2021/01/09 00:09:23;;;;;;;13.27;9.83;;;;;;;3.55;79.72;96444.06;5091788;28;20198;-56
2021/01/09 00:11:49;;;;;;;13.00;9.47;;;;;;;3.53;79.92;96441.66;5100547;28;20319;-56
2021/01/09 00:14:15;;;;;;;11.97;9.97;;;;;;;3.40;80.00;96433.69;5110694;28;20180;-56
2021/01/09 00:16:46;;;;;;;11.50;10.40;;;;;;;3.48;79.97;96436.16;5109725;28;20175;-56
2021/01/09 00:19:11;;;;;;;12.27;10.27;;;;;;;3.39;80.35;96437.25;5097380;28;20423;-56
2021/01/09 00:21:37;;;;;;;14.07;10.40;;;;;;;3.53;79.88;96436.47;5094593;28;20419;-56
2021/01/09 00:24:07;;;;;;;16.83;11.00;;;;;;;3.58;80.03;96441.91;5110523;28;20220;-56
2021/01/09 00:26:33;;;;;;;15.77;10.80;;;;;;;3.53;79.58;96441.66;5099970;28;20430;-56
2021/01/09 00:28:59;;;;;;;13.30;10.37;;;;;;;3.62;79.76;96440.56;5103248;28;20429;-55
2021/01/09 00:31:24;;;;;;;12.30;10.67;;;;;;;3.58;79.14;96441.91;5106248;28;20624;-56
2021/01/09 00:33:49;;;;;;;13.00;10.27;;;;;;;3.34;80.24;96442.16;5090108;28;20171;-55
2021/01/09 00:36:15;;;;;;;13.43;10.03;;;;;;;3.38;80.38;96438.25;5091122;28;20270;-56
2021/01/09 00:38:40;;;;;;;13.03;10.77;;;;;;;3.43;80.27;96435.09;5101797;28;20186;-56
2021/01/09 00:41:06;;;;;;;13.30;10.37;;;;;;;3.53;80.12;96438.25;5092042;28;20736;-56
2021/01/09 00:43:31;;;;;;;11.67;9.97;;;;;;;3.47;79.47;96428.56;5092379;28;20265;-55
2021/01/09 00:45:57;;;;;;;15.73;11.10;;;;;;;3.51;79.77;96441.03;5096699;28;20181;-56
2021/01/09 00:48:22;;;;;;;12.10;10.10;;;;;;;3.37;79.71;96439.22;5108161;28;20177;-55
2021/01/09 00:50:47;;;;;;;11.07;9.80;;;;;;;3.27;80.04;96441.28;5110045;28;20239;-56
2021/01/09 00:53:13;;;;;;;10.87;9.70;;;;;;;3.47;79.65;96442.34;5109618;28;20202;-56
2021/01/09 00:55:38;;;;;;;14.13;11.10;;;;;;;3.39;80.13;96441.66;5108414;28;20175;-56
2021/01/09 00:58:03;;;;;;;13.80;10.80;;;;;;;3.36;79.86;96445.41;5089339;28;20178;-56
2021/01/09 01:00:29;;;;;;;14.10;10.60;;;;;;;3.41;80.18;96447.44;5089903;28;20191;-56
2021/01/09 01:02:54;;;;;;;13.87;11.10;;;;;;;3.54;79.63;96451.03;5089830;28;20177;-56
2021/01/09 01:05:20;;;;;;;13.60;11.03;;;;;;;3.53;79.37;96459.84;5089188;28;20701;-56
2021/01/09 01:07:45;;;;;;;12.60;10.83;;;;;;;3.62;79.84;96452.75;5089326;28;20265;-56
2021/01/09 01:10:12;;;;;;;13.80;11.40;;;;;;;3.73;79.01;96454.88;5089511;28;20225;-56
2021/01/09 01:12:37;;;;;;;11.90;10.00;;;;;;;3.70;79.01;96458.63;5090186;28;20183;-56
2021/01/09 01:15:04;;;;;;;13.17;11.10;;;;;;;3.62;79.25;96458.75;5096418;28;20782;-56
2021/01/09 01:17:29;;;;;;;11.20;9.33;;;;;;;3.76;79.37;96447.53;5112810;28;20175;-56
2021/01/09 01:19:55;;;;;;;12.50;10.47;;;;;;;3.89;78.59;96458.09;5110941;28;20453;-56
2021/01/09 01:22:20;;;;;;;15.30;11.80;;;;;;;3.89;77.66;96452.91;5100645;28;20202;-56
2021/01/09 01:24:46;;;;;;;12.50;11.17;;;;;;;3.91;77.70;96458.69;5107108;28;20186;-56
2021/01/09 01:27:11;;;;;;;13.63;10.67;;;;;;;3.92;77.07;96465.53;5110849;28;20182;-56
2021/01/09 01:29:36;;;;;;;14.03;11.03;;;;;;;3.93;78.08;96461.91;5112962;28;20549;-56
2021/01/09 01:32:02;;;;;;;15.10;11.90;;;;;;;3.98;77.68;96471.78;5113623;28;20210;-58
2021/01/09 01:34:27;;;;;;;15.60;11.53;;;;;;;4.03;77.49;96467.66;5105180;28;20232;-56
2021/01/09 01:36:53;;;;;;;16.20;12.70;;;;;;;3.87;77.63;96460.06;5108359;28;20206;-56
2021/01/09 01:39:18;;;;;;;12.70;11.00;;;;;;;3.79;78.26;96467.13;5107368;28;20183;-56
2021/01/09 01:41:44;;;;;;;12.57;10.80;;;;;;;3.85;78.23;96471.63;5112873;28;20272;-55
2021/01/09 01:44:10;;;;;;;11.30;10.07;;;;;;;3.90;78.05;96470.09;5113366;27;20243;-60
2021/01/09 01:46:36;;;;;;;12.07;10.77;;;;;;;3.73;78.76;96468.66;5113062;28;21210;-55
2021/01/09 01:49:02;;;;;;;18.57;12.20;;;;;;;3.81;78.44;96470.38;5111465;28;20188;-56
2021/01/09 01:51:27;;;;;;;16.77;11.20;;;;;;;3.61;78.85;96464.91;5109828;28;21004;-56
2021/01/09 01:53:55;;;;;;;15.47;11.63;;;;;;;3.55;79.71;96467.44;5099022;28;20185;-56
2021/01/09 01:56:21;;;;;;;13.40;11.33;;;;;;;3.58;79.47;96465.28;5096656;28;20219;-56
2021/01/09 01:58:47;;;;;;;13.23;10.90;;;;;;;3.62;79.60;96470.94;5102615;28;20420;-56
2021/01/09 02:01:15;;;;;;;11.97;10.60;;;;;;;3.65;79.43;96478.34;5092633;28;20474;-56
2021/01/09 02:03:40;;;;;;;11.57;10.27;;;;;;;3.64;79.31;96477.53;5093809;28;20232;-56
2021/01/09 02:06:14;;;;;;;11.43;10.23;;;;;;;3.63;79.57;96481.13;5101730;28;20429;-56
2021/01/09 02:09:03;;;;;;;15.53;11.13;;;;;;;3.67;79.14;96477.19;5093522;28;20173;-55
2021/01/09 02:11:41;;;;;;;13.60;11.40;;;;;;;3.72;79.60;96477.44;5094911;28;20445;-56
2021/01/09 02:14:13;;;;;;;12.97;10.60;;;;;;;3.87;79.92;96477.44;5110471;28;20422;-56
2021/01/09 02:16:39;;;;;;;15.47;11.77;;;;;;;3.97;79.39;96470.16;5097744;28;20551;-56
2021/01/09 02:19:08;;;;;;;13.87;12.13;;;;;;;4.01;78.73;96474.81;5110360;28;20433;-55
2021/01/09 02:21:41;;;;;;;12.63;10.60;;;;;;;4.04;77.80;96477.06;5103540;28;20427;-56
2021/01/09 02:24:14;;;;;;;13.60;10.40;;;;;;;4.02;78.67;96475.63;5098711;28;20428;-56
2021/01/09 02:26:40;;;;;;;15.00;12.40;;;;;;;4.08;78.22;96477.50;5112246;28;20413;-56
2021/01/09 02:29:06;;;;;;;12.53;11.00;;;;;;;4.16;78.49;96478.22;5112027;28;20410;-56
2021/01/09 02:31:42;;;;;;;13.50;11.23;;;;;;;4.26;77.42;96477.13;5112325;28;20216;-55
2021/01/09 02:34:10;;;;;;;13.50;11.87;;;;;;;4.29;77.15;96477.56;5096488;28;20182;-56
2021/01/09 02:36:39;;;;;;;13.53;11.17;;;;;;;4.33;77.18;96477.97;5091622;28;20415;-56
2021/01/09 02:39:05;;;;;;;12.93;10.53;;;;;;;4.30;77.60;96467.94;5091941;28;20556;-56
2021/01/09 02:41:33;;;;;;;15.20;11.00;;;;;;;4.32;77.37;96469.38;5091462;28;21169;-56
2021/01/09 02:44:07;;;;;;;16.53;10.87;;;;;;;4.40;77.07;96471.88;5097810;28;20431;-56
2021/01/09 02:46:32;;;;;;;13.10;10.87;;;;;;;4.43;76.55;96471.50;5096584;28;20415;-56
2021/01/09 02:48:58;;;;;;;14.40;11.70;;;;;;;4.49;76.63;96469.94;5092873;28;20920;-56
2021/01/09 02:51:23;;;;;;;18.37;13.20;;;;;;;4.45;77.29;96471.31;5091594;28;20208;-56
2021/01/09 02:53:49;;;;;;;14.17;11.60;;;;;;;4.47;76.67;96458.91;5104402;28;20264;-56
2021/01/09 02:56:14;;;;;;;15.20;11.23;;;;;;;4.47;76.77;96471.94;5112042;28;20172;-55
2021/01/09 02:58:39;;;;;;;14.93;11.17;;;;;;;4.60;76.55;96466.84;5102651;28;20225;-56
2021/01/09 03:01:05;;;;;;;15.33;12.73;;;;;;;4.64;76.10;96468.88;5107180;28;20222;-56
2021/01/09 03:03:30;;;;;;;15.47;12.50;;;;;;;4.62;76.69;96476.06;5108249;28;20176;-56
2021/01/09 03:05:55;;;;;;;18.00;14.87;;;;;;;4.65;76.02;96473.13;5112649;28;20281;-56
2021/01/09 03:08:21;;;;;;;19.27;13.70;;;;;;;4.67;75.88;96480.72;5095414;28;20180;-56
2021/01/09 03:10:46;;;;;;;16.90;13.23;;;;;;;4.58;76.04;96481.84;5114345;27;20197;-56
2021/01/09 03:13:11;;;;;;;17.93;12.40;;;;;;;4.50;76.85;96487.16;5111899;28;20233;-56
2021/01/09 03:15:37;;;;;;;15.00;12.23;;;;;;;4.54;77.23;96483.19;5115328;28;20190;-55
2021/01/09 03:18:02;;;;;;;17.37;13.93;;;;;;;4.61;76.71;96489.28;5114924;28;20737;-56
2021/01/09 03:20:27;;;;;;;14.93;12.17;;;;;;;4.61;75.93;96484.88;5113128;28;20269;-56
2021/01/09 03:22:53;;;;;;;16.20;14.20;;;;;;;4.56;76.58;96496.81;5115158;28;20626;-56
2021/01/09 03:25:18;;;;;;;17.23;13.70;;;;;;;4.57;75.78;96501.03;5110740;28;20185;-55
2021/01/09 03:27:44;;;;;;;17.17;13.30;;;;;;;4.49;76.37;96488.97;5094172;28;20179;-55
2021/01/09 03:30:10;;;;;;;19.20;13.77;;;;;;;4.49;76.83;96494.16;5094713;28;20204;-56
2021/01/09 03:32:35;;;;;;;15.93;12.23;;;;;;;4.48;76.90;96492.53;5115077;28;20211;-56
2021/01/09 03:35:01;;;;;;;17.93;14.53;;;;;;;4.49;77.25;96494.16;5113498;28;20423;-56
2021/01/09 03:37:26;;;;;;;19.83;14.50;;;;;;;4.58;76.89;96497.44;5112334;28;20650;-56
2021/01/09 03:39:51;;;;;;;17.10;13.80;;;;;;;4.64;76.93;96494.91;5114674;28;20199;-56
2021/01/09 03:42:17;;;;;;;20.20;13.53;;;;;;;4.57;76.68;96493.22;5101262;28;20183;-55
2021/01/09 03:44:42;;;;;;;18.17;13.80;;;;;;;4.57;77.36;96493.22;5114477;28;20181;-56
2021/01/09 03:47:07;;;;;;;18.03;13.93;;;;;;;4.52;77.03;96492.97;5112477;27;20263;-56
2021/01/09 03:49:33;;;;;;;17.70;12.40;;;;;;;4.55;77.12;96492.63;5114592;28;20287;-56
2021/01/09 03:51:58;;;;;;;15.50;12.67;;;;;;;4.66;77.54;96494.72;5098080;28;20204;-56
2021/01/09 03:54:24;;;;;;;17.80;14.10;;;;;;;4.62;76.54;96493.50;5113316;28;20208;-56
2021/01/09 03:56:49;;;;;;;19.30;14.77;;;;;;;4.69;76.61;96491.75;5114185;28;20648;-56
2021/01/09 03:59:14;;;;;;;23.73;15.47;;;;;;;4.75;77.29;96494.41;5114854;28;20178;-56
2021/01/09 04:01:40;;;;;;;18.77;15.30;;;;;;;4.80;76.85;96493.88;5114481;28;20172;-57
2021/01/09 04:04:05;;;;;;;19.67;14.77;;;;;;;4.80;76.73;96491.28;5108707;28;20164;-56
2021/01/09 04:06:30;;;;;;;16.67;13.97;;;;;;;4.75;76.25;96491.81;5094628;28;20184;-56
2021/01/09 04:08:56;;;;;;;17.47;14.27;;;;;;;4.70;76.60;96498.56;5094008;28;20648;-56
2021/01/09 04:11:21;;;;;;;18.47;13.57;;;;;;;4.72;76.26;96501.78;5108264;28;20219;-56
2021/01/09 04:13:46;;;;;;;17.37;12.87;;;;;;;4.73;76.03;96499.00;5114295;28;20184;-56
2021/01/09 04:16:12;;;;;;;17.80;13.40;;;;;;;4.79;76.34;96492.25;5114320;28;20256;-55
2021/01/09 04:18:37;;;;;;;19.03;14.23;;;;;;;4.78;75.82;96494.03;5113890;28;20170;-56
2021/01/09 04:21:03;;;;;;;18.37;14.27;;;;;;;4.74;75.30;96494.59;5114246;28;20190;-56
2021/01/09 04:23:28;;;;;;;19.93;14.93;;;;;;;4.65;76.70;96501.72;5114138;28;20166;-56
2021/01/09 04:25:53;;;;;;;17.37;13.97;;;;;;;4.70;75.69;96503.78;5102039;28;20661;-56
2021/01/09 04:28:19;;;;;;;19.67;14.60;;;;;;;4.70;75.46;96495.97;5109789;28;20221;-55
2021/01/09 04:30:44;;;;;;;20.90;14.87;;;;;;;4.69;75.36;96497.75;5100941;28;20599;-56
2021/01/09 04:33:10;;;;;;;21.50;14.87;;;;;;;4.69;76.22;96499.56;5105870;28;20180;-57
2021/01/09 04:35:35;;;;;;;21.37;15.17;;;;;;;4.70;76.43;96501.97;5114071;28;20253;-56
2021/01/09 04:38:00;;;;;;;19.77;15.30;;;;;;;4.67;76.45;96504.16;5113605;28;20199;-56
2021/01/09 04:40:26;;;;;;;18.97;15.30;;;;;;;4.64;76.04;96500.09;5113892;28;20189;-56
2021/01/09 04:42:51;;;;;;;20.20;16.20;;;;;;;4.60;77.14;96503.28;5113909;28;20180;-56
2021/01/09 04:45:17;;;;;;;19.70;14.80;;;;;;;4.59;77.05;96499.06;5109200;28;20275;-56
2021/01/09 04:47:43;;;;;;;19.63;15.60;;;;;;;4.60;77.05;96495.47;5095602;28;20176;-57
2021/01/09 04:50:09;;;;;;;20.47;13.60;;;;;;;4.65;76.99;96500.91;5106752;28;20653;-56
2021/01/09 04:52:35;;;;;;;24.10;15.13;;;;;;;4.67;77.04;96502.34;5117944;28;20461;-56
2021/01/09 04:55:01;;;;;;;20.20;15.50;;;;;;;4.74;77.51;96512.81;5117906;28;20231;-56
2021/01/09 04:57:31;;;;;;;21.90;16.30;;;;;;;4.67;77.67;96502.34;5099224;28;20205;-55
2021/01/09 04:59:57;;;;;;;24.20;15.47;;;;;;;4.80;77.09;96509.50;5100227;28;20715;-56
2021/01/09 05:02:23;;;;;;;21.23;15.67;;;;;;;4.80;77.27;96502.47;5118041;28;20867;-57
2021/01/09 05:04:48;;;;;;;19.00;14.73;;;;;;;4.78;76.74;96498.44;5116006;28;20570;-56
2021/01/09 05:07:14;;;;;;;19.90;15.57;;;;;;;4.73;77.65;96504.19;5104508;28;20425;-56
2021/01/09 05:09:39;;;;;;;19.63;15.30;;;;;;;4.72;76.74;96507.00;5104724;28;20680;-56
2021/01/09 05:12:05;;;;;;;17.50;14.77;;;;;;;4.76;76.83;96501.25;5117733;28;20205;-56
2021/01/09 05:14:32;;;;;;;20.17;15.23;;;;;;;4.79;76.90;96510.47;5104400;28;20631;-56
2021/01/09 05:16:58;;;;;;;18.57;14.83;;;;;;;4.73;76.65;96504.19;5096771;28;20415;-56
2021/01/09 05:19:30;;;;;;;22.43;16.50;;;;;;;4.83;76.06;96507.31;5097105;28;20430;-56
2021/01/09 05:22:03;;;;;;;25.70;16.97;;;;;;;4.88;76.07;96511.94;5097000;28;20405;-56
2021/01/09 05:24:28;;;;;;;23.30;17.20;;;;;;;4.83;77.07;96511.72;5098081;28;20427;-56
2021/01/09 05:26:54;;;;;;;27.57;17.17;;;;;;;4.78;77.40;96507.03;5096504;28;20780;-56
2021/01/09 05:29:20;;;;;;;22.30;16.67;;;;;;;4.78;77.37;96512.25;5102974;28;20175;-56
2021/01/09 05:31:46;;;;;;;20.70;16.13;;;;;;;4.77;77.29;96509.84;5103752;28;20203;-56
2021/01/09 05:34:12;;;;;;;21.50;16.20;;;;;;;4.75;77.42;96511.81;5117044;28;20416;-56
2021/01/09 05:36:38;;;;;;;18.93;14.67;;;;;;;4.74;77.62;96523.22;5116696;28;20241;-56
2021/01/09 05:39:04;;;;;;;25.27;15.77;;;;;;;4.78;77.83;96511.47;5117154;28;20246;-56
2021/01/09 05:41:30;;;;;;;22.00;15.47;;;;;;;4.78;77.55;96519.28;5115193;28;20467;-56
2021/01/09 05:44:02;;;;;;;22.50;15.57;;;;;;;4.76;77.14;96519.47;5116760;28;20176;-56
2021/01/09 05:46:30;;;;;;;22.27;16.10;;;;;;;4.67;77.46;96524.97;5100545;28;20180;-56
2021/01/09 05:48:56;;;;;;;24.30;17.87;;;;;;;4.74;77.28;96526.66;5116938;28;20761;-56
2021/01/09 05:51:23;;;;;;;22.43;16.40;;;;;;;4.72;78.30;96525.22;5116862;28;20540;-56
2021/01/09 05:53:48;;;;;;;22.67;16.23;;;;;;;4.66;78.06;96521.53;5116809;28;20406;-56
2021/01/09 05:56:16;;;;;;;20.50;16.27;;;;;;;4.68;78.17;96521.34;5115809;28;20431;-56
2021/01/09 05:58:42;;;;;;;23.10;17.60;;;;;;;4.70;77.14;96528.00;5115713;28;20179;-56
2021/01/09 06:01:13;;;;;;;22.23;16.30;;;;;;;4.61;78.04;96520.50;5112910;28;20427;-56
2021/01/09 06:03:38;;;;;;;24.03;16.80;;;;;;;4.65;78.44;96532.16;5096357;28;20236;-56
2021/01/09 06:06:59;;;;;;;22.47;16.17;;;;;;;4.75;78.21;96523.03;5096150;28;20443;-56
2021/01/09 06:09:34;;;;;;;21.40;16.20;;;;;;;4.77;77.73;96526.25;5079946;28;20256;-55
2021/01/09 06:12:04;;;;;;;23.40;16.60;;;;;;;4.78;77.72;96527.88;5116206;28;20450;-56
2021/01/09 06:14:33;;;;;;;25.17;17.57;;;;;;;4.83;77.94;96530.75;5111731;28;20924;-56
2021/01/09 06:17:00;;;;;;;27.20;18.50;;;;;;;4.81;78.06;96530.13;5095469;28;20406;-56
2021/01/09 06:19:25;;;;;;;23.23;17.10;;;;;;;4.84;77.75;96534.13;5094779;28;20521;-57
2021/01/09 06:21:54;;;;;;;25.43;18.13;;;;;;;4.65;78.21;96530.34;5107084;28;20512;-57
2021/01/09 06:24:21;;;;;;;27.40;18.67;;;;;;;4.72;78.38;96533.81;5111136;28;20177;-56
2021/01/09 06:26:47;;;;;;;20.93;15.70;;;;;;;4.60;78.42;96540.50;5095339;28;20421;-56
2021/01/09 06:29:20;;;;;;;24.27;17.53;;;;;;;4.69;78.36;96533.41;5095463;28;20423;-56
2021/01/09 06:31:54;;;;;;;28.90;19.07;;;;;;;4.67;77.88;96541.38;5095595;28;20619;-56
2021/01/09 06:34:25;;;;;;;26.47;18.33;;;;;;;4.58;78.43;96537.28;5095771;28;20460;-57
2021/01/09 06:37:00;;;;;;;33.00;21.00;;;;;;;4.61;78.35;96541.31;5094849;28;20771;-56
2021/01/09 06:39:27;;;;;;;28.90;17.57;;;;;;;4.52;79.48;96543.22;5096474;28;20941;-56
2021/01/09 06:41:55;;;;;;;31.83;22.37;;;;;;;4.55;79.20;96547.25;5109153;28;20423;-56
2021/01/09 06:44:24;;;;;;;27.17;18.00;;;;;;;4.50;79.64;96544.38;5115825;28;20848;-56
2021/01/09 06:46:54;;;;;;;26.43;17.93;;;;;;;4.56;79.78;96552.28;5115478;28;20439;-56
2021/01/09 06:49:21;;;;;;;25.50;18.60;;;;;;;4.46;79.59;96548.31;5114850;28;20881;-56
2021/01/09 06:51:54;;;;;;;25.10;17.80;;;;;;;4.39;79.78;96557.84;5095866;28;20478;-56
2021/01/09 06:54:20;;;;;;;31.97;19.87;;;;;;;4.42;79.96;96544.50;5095383;28;20797;-55
2021/01/09 06:56:47;;;;;;;31.17;20.20;;;;;;;4.52;79.40;96548.41;5095901;28;20427;-57
2021/01/09 06:59:50;;;;;;;24.27;17.40;;;;;;;4.53;79.61;96552.63;5095003;28;20415;-56
2021/01/09 07:02:28;;;;;;;28.47;18.67;;;;;;;4.40;80.07;96552.50;5113630;28;20488;-55
2021/01/09 07:05:08;;;;;;;29.13;18.70;;;;;;;4.36;80.48;96553.84;5097497;28;20572;-56
2021/01/09 07:07:55;;;;;;;24.73;17.90;;;;;;;4.45;80.09;96552.75;5094519;28;20406;-56
2021/01/09 07:10:26;;;;;;;30.57;18.97;;;;;;;4.50;79.73;96554.78;5093809;28;20519;-56
2021/01/09 07:12:57;;;;;;;26.00;16.83;;;;;;;4.51;80.03;96554.59;5094910;28;20472;-56
2021/01/09 07:15:24;;;;;;;26.63;18.17;;;;;;;4.54;79.55;96556.03;5095850;28;20427;-55
2021/01/09 07:18:01;;;;;;;33.47;19.63;;;;;;;4.44;80.37;96563.34;5096612;28;20523;-56
2021/01/09 07:20:35;;;;;;;27.73;19.63;;;;;;;4.49;80.32;96569.59;5108857;28;20933;-56
2021/01/09 07:23:02;;;;;;;27.47;17.83;;;;;;;4.47;80.08;96568.97;5095131;28;20407;-56
2021/01/09 07:25:31;;;;;;;31.03;18.90;;;;;;;4.38;80.84;96569.25;5094800;28;20407;-57
2021/01/09 07:27:59;;;;;;;28.97;19.80;;;;;;;4.49;79.74;96568.78;5094167;28;20413;-57
2021/01/09 07:30:27;;;;;;;33.17;18.83;;;;;;;4.41;80.04;96564.50;5111238;28;20457;-57
2021/01/09 07:32:53;;;;;;;35.20;21.00;;;;;;;4.19;80.90;96566.22;5113231;28;20421;-56
2021/01/09 07:35:30;;;;;;;37.20;21.27;;;;;;;4.20;81.12;96567.03;5113515;28;20420;-56
2021/01/09 07:37:58;;;;;;;32.83;20.77;;;;;;;4.25;81.09;96569.91;5107805;28;20429;-56
2021/01/09 07:40:25;;;;;;;33.27;19.73;;;;;;;4.25;81.63;96569.09;5106318;28;20466;-56
2021/01/09 07:42:51;;;;;;;32.70;19.63;;;;;;;4.27;81.58;96573.13;5094451;28;20434;-56
2021/01/09 07:45:21;;;;;;;36.07;22.90;;;;;;;4.38;80.90;96583.06;5094396;28;20493;-57
2021/01/09 07:47:48;;;;;;;35.67;21.77;;;;;;;4.38;80.87;96587.47;5092869;28;20778;-56
2021/01/09 07:50:17;;;;;;;36.70;21.20;;;;;;;4.42;81.20;96583.50;5094090;28;20465;-56
2021/01/09 07:52:43;;;;;;;34.63;20.90;;;;;;;4.27;81.84;96580.13;5094076;28;20468;-56
2021/01/09 07:55:14;;;;;;;34.23;21.63;;;;;;;4.29;81.15;96588.53;5095008;28;20425;-56
2021/01/09 07:57:40;;;;;;;35.33;22.67;;;;;;;4.33;81.55;96587.19;5105983;28;20417;-56
2021/01/09 08:00:13;;;;;;;34.80;21.57;;;;;;;4.30;81.75;96590.16;5110812;28;20963;-56
2021/01/09 08:02:41;;;;;;;35.33;21.40;;;;;;;4.11;82.99;96592.31;5114245;28;20664;-56
2021/01/09 08:05:22;;;;;;;34.67;22.07;;;;;;;4.28;81.80;96590.34;5114439;28;20419;-57
2021/01/09 08:08:00;;;;;;;39.53;23.10;;;;;;;4.33;82.27;96593.19;5113799;28;20945;-57
2021/01/09 08:10:33;;;;;;;37.53;22.60;;;;;;;4.38;82.32;96603.06;5112857;28;20459;-56
2021/01/09 08:13:04;;;;;;;31.87;19.83;;;;;;;4.48;81.30;96604.38;5093808;28;20502;-56
2021/01/09 08:15:34;;;;;;;34.97;22.13;;;;;;;4.56;80.87;96603.50;5106237;28;20506;-56
2021/01/09 08:18:01;;;;;;;36.60;22.60;;;;;;;4.52;80.81;96613.44;5114072;28;20494;-56
2021/01/09 08:20:27;;;;;;;31.70;18.93;;;;;;;4.17;81.71;96615.00;5100420;28;20435;-56
2021/01/09 08:22:57;;;;;;;31.93;19.50;;;;;;;4.28;81.88;96620.72;5092212;28;20414;-56
2021/01/09 08:25:26;;;;;;;27.17;19.00;;;;;;;4.38;81.55;96621.28;5094892;28;20173;-56
2021/01/09 08:27:59;;;;;;;27.63;18.70;;;;;;;4.37;81.96;96614.44;5094366;28;20422;-56
2021/01/09 08:30:28;;;;;;;26.77;17.67;;;;;;;4.30;81.98;96619.56;5093354;28;20496;-56
2021/01/09 08:33:08;;;;;;;29.17;17.83;;;;;;;4.29;81.88;96617.97;5093658;28;20427;-56
2021/01/09 08:35:46;;;;;;;25.80;17.77;;;;;;;4.37;81.09;96617.03;5093243;28;20929;-56
2021/01/09 08:38:12;;;;;;;23.27;17.50;;;;;;;4.34;81.46;96620.00;5091815;28;20776;-56
2021/01/09 08:40:37;;;;;;;26.97;17.03;;;;;;;4.34;81.06;96620.81;5109393;28;20446;-55
2021/01/09 08:43:08;;;;;;;28.90;18.30;;;;;;;4.35;81.52;96624.25;5099717;28;20806;-56
2021/01/09 08:45:45;;;;;;;28.20;18.70;;;;;;;4.17;81.86;96627.19;5093463;28;20626;-55
2021/01/09 08:48:15;;;;;;;26.23;16.53;;;;;;;4.12;82.62;96625.13;5093160;28;20406;-55
2021/01/09 08:50:51;;;;;;;25.63;18.20;;;;;;;4.29;81.64;96627.56;5093340;28;20438;-56
2021/01/09 08:53:16;;;;;;;23.00;16.00;;;;;;;4.30;81.54;96634.34;5092064;28;20414;-55
2021/01/09 08:55:43;;;;;;;24.30;17.57;;;;;;;4.42;81.22;96635.53;5097898;28;20506;-56
2021/01/09 08:58:10;;;;;;;25.60;18.30;;;;;;;4.46;81.37;96631.56;5093960;28;20552;-55
2021/01/09 09:00:36;;;;;;;25.17;17.10;;;;;;;4.42;81.19;96627.72;5095672;28;20445;-56
2021/01/09 09:03:02;;;;;;;24.73;17.90;;;;;;;4.48;80.64;96635.59;5113718;28;20465;-56
2021/01/09 09:05:29;;;;;;;23.13;16.47;;;;;;;4.39;81.29;96641.06;5113837;28;20256;-55
2021/01/09 09:08:00;;;;;;;21.97;15.97;;;;;;;4.30;81.26;96645.56;5113276;28;20408;-56
2021/01/09 09:10:28;;;;;;;27.23;17.37;;;;;;;4.44;80.72;96643.97;5111649;28;20882;-55
2021/01/09 09:12:53;;;;;;;26.83;17.50;;;;;;;4.48;80.95;96643.41;5099994;28;20515;-55
2021/01/09 09:15:29;;;;;;;24.63;17.50;;;;;;;4.46;81.01;96647.16;5093084;28;20500;-56
2021/01/09 09:17:56;;;;;;;24.20;15.97;;;;;;;4.54;80.12;96649.69;5103890;28;20175;-56
2021/01/09 09:20:24;;;;;;;21.50;16.13;;;;;;;4.56;79.96;96647.72;5113522;28;20432;-55
2021/01/09 09:22:52;;;;;;;26.50;15.93;;;;;;;4.49;80.59;96646.81;5113047;28;20421;-56
2021/01/09 09:25:24;;;;;;;23.90;15.80;;;;;;;4.40;80.31;96655.72;5109146;28;20436;-56
2021/01/09 09:27:50;;;;;;;23.33;15.90;;;;;;;4.55;79.50;96649.50;5113033;28;20399;-55
2021/01/09 09:30:17;;;;;;;22.13;15.97;;;;;;;4.72;79.53;96652.72;5113255;28;20788;-56
2021/01/09 09:32:44;;;;;;;25.70;16.07;;;;;;;4.86;79.36;96659.69;5111470;28;20505;-55
2021/01/09 09:35:32;;;;;;;21.87;15.80;;;;;;;4.77;78.25;96663.38;5116287;28;20420;-56
2021/01/09 09:37:59;;;;;;;20.83;15.40;;;;;;;4.74;78.80;96661.16;5104365;28;20426;-56
2021/01/09 09:40:30;;;;;;;24.20;16.10;;;;;;;4.82;78.45;96666.25;5116700;28;20431;-56
2021/01/09 09:43:11;;;;;;;22.40;14.80;;;;;;;4.84;77.73;96669.47;5116994;28;20459;-56
2021/01/09 09:45:37;;;;;;;23.00;16.43;;;;;;;4.92;77.59;96667.59;5117191;28;20504;-57
2021/01/09 09:48:02;;;;;;;25.03;17.97;;;;;;;5.01;77.96;96676.09;5116520;28;20497;-55
2021/01/09 09:50:28;;;;;;;22.70;16.13;;;;;;;4.91;77.09;96675.59;5115062;28;20197;-55
2021/01/09 09:53:01;;;;;;;22.10;15.93;;;;;;;4.56;78.72;96671.94;5115174;28;20181;-55
2021/01/09 09:55:26;;;;;;;25.80;17.07;;;;;;;4.68;78.18;96677.47;5116931;28;20193;-56
2021/01/09 09:58:08;;;;;;;23.40;15.77;;;;;;;4.75;78.28;96675.75;5100890;28;20462;-55
2021/01/09 10:00:44;;;;;;;25.77;15.77;;;;;;;4.60;78.33;96675.00;5096308;28;20218;-56
2021/01/09 10:03:10;;;;;;;20.20;14.40;;;;;;;4.59;78.23;96676.78;5096364;28;20421;-55
2021/01/09 10:05:36;;;;;;;20.93;14.20;;;;;;;4.64;76.94;96673.66;5096634;28;20408;-56
2021/01/09 10:08:13;;;;;;;18.40;13.50;;;;;;;4.52;77.03;96668.09;5114433;28;20175;-56
2021/01/09 10:10:38;;;;;;;18.03;12.77;;;;;;;4.65;76.02;96670.84;5116390;28;20190;-56
2021/01/09 10:13:04;;;;;;;20.80;15.50;;;;;;;4.59;77.23;96675.97;5114806;28;20447;-55
2021/01/09 10:15:29;;;;;;;19.40;14.33;;;;;;;4.67;76.48;96670.66;5116496;28;20278;-56
2021/01/09 10:17:57;;;;;;;23.30;14.77;;;;;;;4.63;76.95;96665.03;5097780;28;20265;-56
2021/01/09 10:20:23;;;;;;;17.30;12.77;;;;;;;4.65;76.48;96670.84;5106638;28;20195;-56
2021/01/09 10:22:48;;;;;;;19.00;12.60;;;;;;;4.68;76.64;96667.88;5116350;28;20410;-55
2021/01/09 10:25:14;;;;;;;19.67;12.77;;;;;;;4.64;76.18;96669.22;5116283;28;20501;-55
2021/01/09 10:27:39;;;;;;;17.30;12.13;;;;;;;4.70;75.67;96668.50;5115516;28;20221;-55
2021/01/09 10:30:06;;;;;;;17.93;12.27;;;;;;;4.89;75.45;96662.72;5114138;28;20261;-56
2021/01/09 10:32:31;;;;;;;17.23;12.83;;;;;;;4.95;75.58;96672.41;5113858;28;20206;-56
2021/01/09 10:34:57;;;;;;;18.33;12.60;;;;;;;5.12;75.17;96673.00;5095666;28;20435;-56
2021/01/09 10:37:22;;;;;;;19.47;13.23;;;;;;;5.08;73.91;96674.34;5110292;28;20191;-55
2021/01/09 10:39:48;;;;;;;17.90;12.70;;;;;;;5.09;74.26;96673.38;5116015;28;20195;-56
2021/01/09 10:42:14;;;;;;;16.33;12.03;;;;;;;5.18;74.03;96677.50;5116648;28;20168;-55
2021/01/09 10:44:39;;;;;;;17.43;12.00;;;;;;;5.07;73.65;96677.97;5115672;28;20177;-55
2021/01/09 10:47:05;;;;;;;16.40;11.90;;;;;;;4.97;74.56;96683.47;5114497;28;20398;-55
2021/01/09 10:49:30;;;;;;;18.73;12.77;;;;;;;5.09;73.21;96681.97;5095753;28;20546;-56
2021/01/09 10:51:56;;;;;;;14.50;11.60;;;;;;;5.21;72.91;96671.91;5096284;28;20199;-56
2021/01/09 10:54:21;;;;;;;17.13;12.67;;;;;;;5.19;72.22;96671.28;5095348;28;20206;-56
2021/01/09 10:56:46;;;;;;;15.80;11.97;;;;;;;5.24;73.03;96671.53;5107245;28;20166;-56
2021/01/09 10:59:12;;;;;;;16.10;11.40;;;;;;;5.43;71.92;96670.94;5099843;28;20237;-56
2021/01/09 11:01:38;;;;;;;14.93;10.83;;;;;;;5.40;69.98;96673.88;5113580;28;20183;-56
2021/01/09 11:04:04;;;;;;;16.40;11.50;;;;;;;5.44;71.23;96666.50;5115622;28;20414;-55
2021/01/09 11:06:29;;;;;;;14.60;11.77;;;;;;;5.54;70.62;96664.41;5115128;28;20169;-56
2021/01/09 11:08:54;;;;;;;18.30;13.10;;;;;;;5.58;70.06;96663.06;5113815;28;20181;-55
2021/01/09 11:11:20;;;;;;;16.80;12.00;;;;;;;5.68;69.96;96661.75;5113500;28;20233;-57
2021/01/09 11:13:46;;;;;;;18.30;13.70;;;;;;;5.67;70.05;96667.16;5107406;28;20196;-56
2021/01/09 11:16:20;;;;;;;15.10;12.93;;;;;;;5.52;70.15;96667.22;5102944;28;20711;-56
2021/01/09 11:18:47;;;;;;;16.83;12.93;;;;;;;5.61;69.97;96660.06;5112496;28;20429;-55
2021/01/09 11:21:13;;;;;;;17.90;12.53;;;;;;;5.59;70.69;96662.88;5094662;28;20428;-56
2021/01/09 11:23:40;;;;;;;16.63;12.90;;;;;;;5.66;69.52;96661.13;5094854;28;20471;-55
2021/01/09 11:26:06;;;;;;;15.70;12.30;;;;;;;5.68;69.42;96664.34;5094793;28;20410;-56
2021/01/09 11:28:31;;;;;;;14.13;11.30;;;;;;;5.71;69.50;96666.56;5094159;28;20407;-55